Main page
METAR-TAF:

METAR-TAF

Airports :

Agartala Airport

Agartala, India

latitude: 23-53-24N, longitude: 91-14-32E, elevation: 14 m

Current weather observation

The report was made 6 hours and 32 minutes ago, at 15:00 UTC
Calm wind
Temperature 17°C
Humidity 94%
Pressure 1016 hPa
Visibility: 4000 m
mist

METAR: VEAT 171500Z 00000KT 4000 BR NSC 17/16 Q1016 NOSIG

Time: 03:02 (21:32 UTC)

Forecast

The report was made 1 hour and 32 minutes ago, at 20:00 UTC
Forecast valid from 17 at 21 UTC to 18 at 06 UTC
Wind kt from the North
Visibility: 1500 m
Few clouds at a height of 2000 ft
mist
Temporary
from 17 at 22 UTC to 17 at 24 UTC
Visibility: 1000 m
Few clouds at a height of 1000 ft
Shallow fog
Becoming
from 18 at 03 UTC to 18 at 05 UTC
Visibility: 3000 m
Few clouds at a height of 2000 ft
mist

TAF: VEAT 172000Z 1721/1806 00000KT 1500 BR FEW020 TEMPO 1722/1724 1000 MIFG FEW010 BECMG 1803/1805 3000 BR FEW020

Weather observations and forecasts of more than 4000 airports (METAR and TAF reports).

The available stations are represented by yellow and red dots on the map.

Hover mouse over dot to see the name of the station.

Then click to see weather observations and forecasts.

To change the map : click on the green buttons with a black cross to zoom in, on the green button with a dash to zoom out, or on the green arrows for adjacent maps.


METAR-TAF: